Battle Point — NMBY — position and weather

sailwx.info

Track history (hours):
 
Tides and Currents Weather Stations Pressure Air Temp Water Temp Dewpoint Dewpoint Depression Visibility Wind Speed Wind Dir Waves Ship Positions

Battle Point

Last reported at 2015-Apr-03 02:18 UTC. Time now 2015-Apr-18 20:48 UTC.
Position N 47°44' W 122°44'.
Warning: this ship's position is 15 days out of date.

Length 57 m; draft 3.2 m.

MMSI: 369970254.

Date/timePositionNaut miles runAvg speedWind from/ knotsBaromVisibWave heightAir tempDewpointWater temp
2015-Apr-03 02:18N 47°44' W 122°44'5 6.7
2015-Apr-03 01:34N 47°49' W 122°41'9 8.7
2015-Apr-03 00:33N 47°57' W 122°38'1110.3
2015-Apr-02 23:26N 48°08' W 122°43'1110.8
2015-Apr-02 22:27N 48°19' W 122°47'910.1
2015-Apr-02 21:33N 48°27' W 122°45'10 9.6
2015-Apr-02 20:33N 48°37' W 122°45'9 9.2
2015-Apr-02 19:33N 48°46' W 122°50'1110.9
2015-Apr-02 18:33N 48°51' W 123°04'1111.2
2015-Apr-02 17:33N 48°58' W 123°18'1211.5
2015-Apr-02 16:33N 49°06' W 123°30'1211.6
2015-Apr-02 15:33N 49°12' W 123°45'1111.0
2015-Apr-02 14:32N 49°16' W 124°02'5 0.1
2015-Mar-31 14:28N 49°16' W 124°09'  
2015-Mar-28 22:27N 49°16' W 124°08'7 8.2
2015-Mar-28 21:32N 49°19' W 123°57'0 0.2
2015-Mar-28 20:29N 49°19' W 123°58'0 0.0
2015-Mar-28 19:33N 49°19' W 123°58'0 0.1
2015-Mar-28 18:32N 49°19' W 123°58'0 0.1
2015-Mar-28 17:33N 49°19' W 123°58'0 0.0
2015-Mar-28 16:24N 49°19' W 123°57'0 0.0
2015-Mar-28 15:31N 49°19' W 123°57'8 7.9
2015-Mar-28 14:32N 49°16' W 124°08'  
2015-Mar-25 17:33N 49°16' W 124°09'  
Track history (hours):
 
Tides and Currents Weather Stations Pressure Air Temp Water Temp Dewpoint Dewpoint Depression Visibility Wind Speed Wind Dir Waves Ship Positions

Battle Point

Last reported at 2015-Apr-03 02:18 UTC. Time now 2015-Apr-18 20:48 UTC.
Position N 47°44' W 122°44'.
Warning: this ship's position is 15 days out of date.

Length 57 m; draft 3.2 m.

MMSI: 369970254.

Date/timePositionNaut miles runAvg speedWind from/ knotsBaromVisibWave heightAir tempDewpointWater temp
2015-Apr-03 02:18N 47°44' W 122°44'5 6.7
2015-Apr-03 01:34N 47°49' W 122°41'9 8.7
2015-Apr-03 00:33N 47°57' W 122°38'1110.3
2015-Apr-02 23:26N 48°08' W 122°43'1110.8
2015-Apr-02 22:27N 48°19' W 122°47'910.1
2015-Apr-02 21:33N 48°27' W 122°45'10 9.6
2015-Apr-02 20:33N 48°37' W 122°45'9 9.2
2015-Apr-02 19:33N 48°46' W 122°50'1110.9
2015-Apr-02 18:33N 48°51' W 123°04'1111.2
2015-Apr-02 17:33N 48°58' W 123°18'1211.5
2015-Apr-02 16:33N 49°06' W 123°30'1211.6
2015-Apr-02 15:33N 49°12' W 123°45'1111.0
2015-Apr-02 14:32N 49°16' W 124°02'5 0.1
2015-Mar-31 14:28N 49°16' W 124°09'  
2015-Mar-28 22:27N 49°16' W 124°08'7 8.2
2015-Mar-28 21:32N 49°19' W 123°57'0 0.2
2015-Mar-28 20:29N 49°19' W 123°58'0 0.0
2015-Mar-28 19:33N 49°19' W 123°58'0 0.1
2015-Mar-28 18:32N 49°19' W 123°58'0 0.1
2015-Mar-28 17:33N 49°19' W 123°58'0 0.0
2015-Mar-28 16:24N 49°19' W 123°57'0 0.0
2015-Mar-28 15:31N 49°19' W 123°57'8 7.9
2015-Mar-28 14:32N 49°16' W 124°08'  
2015-Mar-25 17:33N 49°16' W 124°09'  

Dump ship's entire track history